createdAt,value
2023-03-18T00:02:15.943Z,42.50
2023-03-18T00:04:42.899Z,42.50
2023-03-18T00:07:10.780Z,42.60
2023-03-18T00:09:38.246Z,42.50
2023-03-18T00:12:06.467Z,43.10
2023-03-18T00:14:36.491Z,42.50
2023-03-18T00:17:05.612Z,42.50
2023-03-18T00:19:33.656Z,42.40
2023-03-18T00:22:00.631Z,42.40
2023-03-18T00:24:30.803Z,42.30
2023-03-18T00:26:58.339Z,42.30
2023-03-18T00:29:25.872Z,42.30
2023-03-18T00:31:52.913Z,42.30
2023-03-18T00:34:20.993Z,42.20
2023-03-18T00:36:50.832Z,42.10
2023-03-18T00:39:21.488Z,42.10
2023-03-18T00:41:48.534Z,42.10
2023-03-18T00:44:15.538Z,42.10
2023-03-18T00:46:43.525Z,42.10
2023-03-18T00:49:10.923Z,42.10
2023-03-18T00:51:42.159Z,42.10
2023-03-18T00:54:13.082Z,42.60
2023-03-18T00:56:41.311Z,42.00
2023-03-18T00:59:08.739Z,42.00
2023-03-18T01:01:37.462Z,42.00
2023-03-18T01:04:06.349Z,42.10
2023-03-18T01:06:37.384Z,42.10
2023-03-18T01:09:06.851Z,42.10
2023-03-18T01:11:33.977Z,42.20
2023-03-18T01:14:01.701Z,42.20
2023-03-18T01:16:29.963Z,42.20
2023-03-18T01:18:57.393Z,42.20
2023-03-18T01:21:24.358Z,42.20
2023-03-18T01:23:57.768Z,42.30
2023-03-18T01:26:26.415Z,42.30
2023-03-18T01:28:55.892Z,42.30
2023-03-18T01:31:25.446Z,42.30
2023-03-18T01:33:56.025Z,42.40
2023-03-18T01:36:23.119Z,42.30
2023-03-18T01:39:02.912Z,42.50
2023-03-18T01:41:30.251Z,42.50
2023-03-18T01:43:57.394Z,42.50
2023-03-18T01:46:32.911Z,42.50
2023-03-18T01:49:10.744Z,42.50
2023-03-18T01:51:40.782Z,42.50
2023-03-18T01:54:08.852Z,42.60
2023-03-18T01:56:38.268Z,42.50
2023-03-18T01:59:06.276Z,42.50
2023-03-18T02:01:53.322Z,42.60
2023-03-18T02:04:26.865Z,42.60
2023-03-18T02:06:53.939Z,42.60
2023-03-18T02:09:21.214Z,42.50
2023-03-18T02:11:49.937Z,42.60
2023-03-18T02:14:25.299Z,42.60
2023-03-18T02:17:08.407Z,42.60
2023-03-18T02:20:20.381Z,42.60
2023-03-18T02:23:03.937Z,42.60
2023-03-18T02:25:47.891Z,42.50
2023-03-18T02:28:23.242Z,42.50
2023-03-18T02:30:58.788Z,42.50
2023-03-18T02:33:36.419Z,42.50
2023-03-18T02:36:19.392Z,42.50
2023-03-18T02:38:48.043Z,42.50
2023-03-18T02:41:30.187Z,42.40
2023-03-18T02:43:57.333Z,42.50
2023-03-18T02:47:10.652Z,42.60
2023-03-18T02:49:38.467Z,42.50
2023-03-18T02:52:06.246Z,42.40
2023-03-18T02:54:33.885Z,42.50
2023-03-18T02:57:02.601Z,42.50
2023-03-18T02:59:32.379Z,42.60
2023-03-18T03:02:00.105Z,42.50
2023-03-18T03:04:27.796Z,42.50
2023-03-18T03:06:58.923Z,42.60
2023-03-18T03:09:43.695Z,42.60
2023-03-18T03:12:10.736Z,42.50
2023-03-18T03:14:43.707Z,42.60
2023-03-18T03:17:10.980Z,42.60
2023-03-18T03:19:38.250Z,42.60
2023-03-18T03:22:05.304Z,42.50
2023-03-18T03:24:32.365Z,42.60
2023-03-18T03:26:59.512Z,42.60
2023-03-18T03:29:26.386Z,42.60
2023-03-18T03:31:53.286Z,42.70
2023-03-18T03:34:20.470Z,42.50
2023-03-18T03:36:47.383Z,42.60
2023-03-18T03:39:14.794Z,42.70
2023-03-18T03:41:41.895Z,42.70
2023-03-18T03:44:08.945Z,42.60
2023-03-18T03:46:36.025Z,42.60
2023-03-18T03:49:04.517Z,42.70
2023-03-18T03:51:31.417Z,42.70
2023-03-18T03:53:58.890Z,42.70
2023-03-18T03:56:25.846Z,42.80
2023-03-18T03:58:53.458Z,42.90
2023-03-18T04:01:21.473Z,42.80
2023-03-18T04:03:49.558Z,42.90
2023-03-18T04:06:17.457Z,42.90
2023-03-18T04:08:54.731Z,42.90
2023-03-18T04:11:22.172Z,42.90
2023-03-18T04:13:49.588Z,42.90
2023-03-18T04:16:17.161Z,42.90
2023-03-18T04:18:45.156Z,42.90
2023-03-18T04:21:12.340Z,43.00
2023-03-18T04:23:44.072Z,43.10
2023-03-18T04:26:13.093Z,43.00
2023-03-18T04:28:40.592Z,43.00
2023-03-18T04:31:10.203Z,43.10
2023-03-18T04:33:37.203Z,43.10
2023-03-18T04:36:04.389Z,43.10
2023-03-18T04:38:33.087Z,43.10
2023-03-18T04:41:00.295Z,43.20
2023-03-18T04:43:27.415Z,43.30
2023-03-18T04:45:55.022Z,43.30
2023-03-18T04:48:22.325Z,43.30
2023-03-18T04:50:49.800Z,43.40
2023-03-18T04:53:22.560Z,44.00
2023-03-18T04:55:50.773Z,43.40
2023-03-18T04:58:19.660Z,43.50
2023-03-18T05:00:59.082Z,43.50
2023-03-18T05:03:33.404Z,44.10
2023-03-18T05:06:00.826Z,43.60
2023-03-18T05:08:37.147Z,43.60
2023-03-18T05:11:04.574Z,43.60
2023-03-18T05:13:33.546Z,43.70
2023-03-18T05:16:00.837Z,43.70
2023-03-18T05:18:27.972Z,43.70
2023-03-18T05:20:57.318Z,43.70
2023-03-18T05:23:24.837Z,43.80
2023-03-18T05:25:55.340Z,43.80
2023-03-18T05:28:24.825Z,43.80
2023-03-18T05:31:07.800Z,43.80
2023-03-18T05:33:39.160Z,43.80
2023-03-18T05:36:07.571Z,43.90
2023-03-18T05:38:40.582Z,44.00
2023-03-18T05:41:08.111Z,44.00
2023-03-18T05:43:39.236Z,44.10
2023-03-18T05:46:06.535Z,44.20
2023-03-18T05:48:44.905Z,44.20
2023-03-18T05:51:12.612Z,44.20
2023-03-18T05:53:39.923Z,44.30
2023-03-18T05:56:20.243Z,44.40
2023-03-18T05:58:51.978Z,44.40
2023-03-18T06:01:37.490Z,44.40
2023-03-18T06:04:06.340Z,44.60
2023-03-18T06:06:33.805Z,44.60
2023-03-18T06:09:01.018Z,44.60
2023-03-18T06:11:29.359Z,44.60
2023-03-18T06:13:56.753Z,44.70
2023-03-18T06:16:24.715Z,44.70
2023-03-18T06:18:54.325Z,44.70
2023-03-18T06:21:21.268Z,45.00
2023-03-18T06:23:48.422Z,44.80
2023-03-18T06:26:15.872Z,44.90
2023-03-18T06:28:49.854Z,44.80
2023-03-18T06:31:17.908Z,44.70
2023-03-18T06:33:45.130Z,44.80
2023-03-18T06:36:16.517Z,44.90
2023-03-18T06:38:47.425Z,44.80
2023-03-18T06:41:14.876Z,44.80
2023-03-18T06:43:54.982Z,44.80
2023-03-18T06:46:23.905Z,44.90
2023-03-18T06:48:50.990Z,44.80
2023-03-18T06:51:23.168Z,44.90
2023-03-18T06:53:51.252Z,44.90
2023-03-18T06:56:18.207Z,44.90
2023-03-18T06:58:56.386Z,45.00
2023-03-18T07:01:23.578Z,45.00
2023-03-18T07:03:51.801Z,45.00
2023-03-18T07:06:19.088Z,45.00
2023-03-18T07:08:47.029Z,44.80
2023-03-18T07:11:14.152Z,44.90
2023-03-18T07:13:43.048Z,45.00
2023-03-18T07:16:17.616Z,44.90
2023-03-18T07:18:44.552Z,44.80
2023-03-18T07:21:13.707Z,44.90
2023-03-18T07:23:40.997Z,44.90
2023-03-18T07:26:08.962Z,44.90
2023-03-18T07:28:35.876Z,44.80
2023-03-18T07:31:03.791Z,44.70
2023-03-18T07:33:30.795Z,44.60
2023-03-18T07:35:58.106Z,44.40
2023-03-18T07:38:25.425Z,44.20
2023-03-18T07:40:52.317Z,44.10
2023-03-18T07:43:19.374Z,44.00
2023-03-18T07:45:46.644Z,43.80
2023-03-18T07:48:15.313Z,43.70
2023-03-18T07:50:42.251Z,43.40
2023-03-18T07:53:09.697Z,43.40
2023-03-18T07:55:36.884Z,43.30
2023-03-18T07:58:04.651Z,43.20
2023-03-18T08:00:32.448Z,43.20
2023-03-18T08:02:59.739Z,43.10
2023-03-18T08:05:27.510Z,43.10
2023-03-18T08:07:55.229Z,43.00
2023-03-18T08:10:22.556Z,43.00
2023-03-18T08:12:53.505Z,42.80
2023-03-18T08:15:22.437Z,42.50
2023-03-18T08:17:51.147Z,42.20
2023-03-18T08:20:18.668Z,42.00
2023-03-18T08:22:46.011Z,42.20
2023-03-18T08:25:14.574Z,42.40
2023-03-18T08:27:41.816Z,42.20
2023-03-18T08:30:10.613Z,42.10
2023-03-18T08:32:37.654Z,41.80
2023-03-18T08:35:05.405Z,41.60
2023-03-18T08:37:32.625Z,41.20
2023-03-18T08:40:00.162Z,40.60
2023-03-18T08:42:28.952Z,40.20
2023-03-18T08:44:56.567Z,39.80
2023-03-18T08:47:25.524Z,39.10
2023-03-18T08:49:53.249Z,38.40
2023-03-18T08:52:20.501Z,38.10
2023-03-18T08:54:47.753Z,37.50
2023-03-18T08:57:15.973Z,37.10
2023-03-18T08:59:43.046Z,36.50
2023-03-18T09:02:17.035Z,35.80
2023-03-18T09:04:45.130Z,35.30
2023-03-18T09:07:13.191Z,34.40
2023-03-18T09:09:44.067Z,33.70
2023-03-18T09:12:12.648Z,33.40
2023-03-18T09:14:40.865Z,33.20
2023-03-18T09:17:08.925Z,33.10
2023-03-18T09:19:37.361Z,32.90
2023-03-18T09:22:05.061Z,32.60
2023-03-18T09:24:32.196Z,32.80
2023-03-18T09:26:59.965Z,32.90
2023-03-18T09:29:27.714Z,33.30
2023-03-18T09:31:55.560Z,33.40
2023-03-18T09:34:22.645Z,33.50
2023-03-18T09:36:51.521Z,33.30
2023-03-18T09:39:22.252Z,33.00
2023-03-18T09:42:05.298Z,32.40
2023-03-18T09:44:36.169Z,32.00
2023-03-18T09:47:54.147Z,32.00
2023-03-18T09:50:54.344Z,31.80
2023-03-18T09:53:30.376Z,31.60
2023-03-18T09:56:02.168Z,32.00
2023-03-18T09:58:42.474Z,32.00
2023-03-18T10:01:12.199Z,31.60
2023-03-18T10:04:01.114Z,31.80
2023-03-18T10:06:29.394Z,30.40
2023-03-18T10:09:19.997Z,30.20
2023-03-18T10:11:51.102Z,29.60
2023-03-18T10:14:27.559Z,29.40
2023-03-18T10:16:58.498Z,28.80
2023-03-18T10:19:26.309Z,29.20
2023-03-18T10:22:25.813Z,29.00
2023-03-18T10:25:08.214Z,27.80
2023-03-18T10:27:44.743Z,27.90
2023-03-18T10:31:00.104Z,27.50
2023-03-18T10:34:00.648Z,27.00
2023-03-18T10:37:03.969Z,25.90
2023-03-18T10:39:33.678Z,26.20
2023-03-18T10:42:15.656Z,26.10
2023-03-18T10:44:42.909Z,25.00
2023-03-18T10:47:33.880Z,25.20
2023-03-18T10:50:16.102Z,24.60
2023-03-18T10:52:54.230Z,24.30
2023-03-18T10:55:31.065Z,23.90
2023-03-18T10:57:57.987Z,24.00
2023-03-18T11:00:34.678Z,24.00
2023-03-18T11:03:04.084Z,23.60
2023-03-18T11:05:36.064Z,23.60
2023-03-18T11:08:08.803Z,23.60
2023-03-18T11:10:47.038Z,23.40
2023-03-18T11:13:18.756Z,23.40
2023-03-18T11:15:56.699Z,23.50
2023-03-18T11:18:26.803Z,23.40
2023-03-18T11:21:01.193Z,23.60
2023-03-18T11:23:56.007Z,23.80
2023-03-18T11:26:26.408Z,23.90
2023-03-18T11:29:10.706Z,23.90
2023-03-18T11:31:54.876Z,23.90
2023-03-18T11:34:22.239Z,23.60
2023-03-18T11:37:05.014Z,23.50
2023-03-18T11:39:37.548Z,23.20
2023-03-18T11:42:22.008Z,22.90
2023-03-18T11:44:55.284Z,22.80
2023-03-18T11:47:25.296Z,22.90
2023-03-18T11:49:52.408Z,23.20
2023-03-18T11:52:36.586Z,23.40
2023-03-18T11:55:23.466Z,23.60
2023-03-18T11:58:36.431Z,23.90
2023-03-18T12:01:57.622Z,24.40
2023-03-18T12:04:36.279Z,24.90
2023-03-18T12:07:32.567Z,25.30
2023-03-18T12:10:20.569Z,25.90
2023-03-18T12:13:12.004Z,26.50
2023-03-18T12:16:17.153Z,26.90
2023-03-18T12:18:56.609Z,27.00
2023-03-18T12:21:53.612Z,27.10
2023-03-18T12:24:29.661Z,27.20
2023-03-18T12:27:07.272Z,27.10
2023-03-18T12:30:15.229Z,27.10
2023-03-18T12:32:57.509Z,27.20
2023-03-18T12:35:38.017Z,27.20
2023-03-18T12:38:49.588Z,27.30
2023-03-18T12:42:01.852Z,27.50
2023-03-18T12:44:47.403Z,27.60
2023-03-18T12:47:27.822Z,27.70
2023-03-18T12:49:59.055Z,27.70
2023-03-18T12:52:45.095Z,27.30
2023-03-18T12:55:29.465Z,27.20
2023-03-18T12:58:03.964Z,27.20
2023-03-18T13:00:48.140Z,27.40
2023-03-18T13:03:28.406Z,27.30
2023-03-18T13:06:38.892Z,27.20
2023-03-18T13:09:37.425Z,26.80
2023-03-18T13:12:35.381Z,26.70
2023-03-18T13:15:23.023Z,26.60
2023-03-18T13:17:54.548Z,26.30
2023-03-18T13:20:28.271Z,26.10
2023-03-18T13:23:36.145Z,25.90
2023-03-18T13:27:00.203Z,25.70
2023-03-18T13:30:02.924Z,25.50
2023-03-18T13:32:47.946Z,25.40
2023-03-18T13:35:59.647Z,25.60
2023-03-18T13:38:51.196Z,25.60
2023-03-18T13:42:07.815Z,25.80
2023-03-18T13:45:24.226Z,25.60
2023-03-18T13:48:08.597Z,25.50
2023-03-18T13:50:42.233Z,25.40
2023-03-18T13:53:33.601Z,25.50
2023-03-18T13:56:05.430Z,25.40
2023-03-18T13:58:52.294Z,25.20
2023-03-18T14:01:34.043Z,25.10
2023-03-18T14:04:32.063Z,25.00
2023-03-18T14:07:19.483Z,25.10
2023-03-18T14:10:17.074Z,25.00
2023-03-18T14:12:47.606Z,24.70
2023-03-18T14:15:15.593Z,24.90
2023-03-18T14:17:52.984Z,24.90
2023-03-18T14:20:21.433Z,24.60
2023-03-18T14:23:25.059Z,24.50
2023-03-18T14:26:03.265Z,24.50
2023-03-18T14:28:42.665Z,24.70
2023-03-18T14:31:32.460Z,24.60
2023-03-18T14:34:27.740Z,24.60
2023-03-18T14:36:55.575Z,24.50
2023-03-18T14:39:47.987Z,24.40
2023-03-18T14:43:09.849Z,24.30
2023-03-18T14:45:44.142Z,24.40
2023-03-18T14:48:21.433Z,24.50
2023-03-18T14:50:52.341Z,24.80
2023-03-18T14:53:37.707Z,25.30
2023-03-18T14:56:06.304Z,25.70
2023-03-18T14:58:34.653Z,26.00
2023-03-18T15:01:09.846Z,26.30
2023-03-18T15:03:42.487Z,26.60
2023-03-18T15:06:20.508Z,26.90
2023-03-18T15:08:58.638Z,27.10
2023-03-18T15:11:26.452Z,27.30
2023-03-18T15:14:00.074Z,27.60
2023-03-18T15:16:32.894Z,28.00
2023-03-18T15:19:00.212Z,28.40
2023-03-18T15:21:32.000Z,28.80
2023-03-18T15:24:04.663Z,29.40
2023-03-18T15:26:37.439Z,29.80
2023-03-18T15:29:28.304Z,30.30
2023-03-18T15:32:15.973Z,31.00
2023-03-18T15:34:47.112Z,31.40
2023-03-18T15:37:34.161Z,31.70
2023-03-18T15:40:47.888Z,32.80
2023-03-18T15:43:28.948Z,33.20
2023-03-18T15:46:05.833Z,33.50
2023-03-18T15:48:40.887Z,34.20
2023-03-18T15:51:28.734Z,34.70
2023-03-18T15:54:28.206Z,35.40
2023-03-18T15:56:57.773Z,35.80
2023-03-18T15:59:32.391Z,36.10
2023-03-18T16:02:00.509Z,36.90
2023-03-18T16:04:32.594Z,37.10
2023-03-18T16:06:59.814Z,37.70
2023-03-18T16:09:27.030Z,37.90
2023-03-18T16:12:03.506Z,38.40
2023-03-18T16:14:40.207Z,39.00
2023-03-18T16:17:07.081Z,39.30
2023-03-18T16:19:34.008Z,39.30
2023-03-18T16:22:01.004Z,39.60
2023-03-18T16:24:28.056Z,39.90
2023-03-18T16:26:57.025Z,40.20
2023-03-18T16:29:31.797Z,40.40
2023-03-18T16:32:00.044Z,40.80
2023-03-18T16:34:27.846Z,41.00
2023-03-18T16:36:55.266Z,41.20
2023-03-18T16:39:29.147Z,41.60
2023-03-18T16:41:56.324Z,41.80
2023-03-18T16:44:23.649Z,41.90
2023-03-18T16:46:54.807Z,42.20
2023-03-18T16:49:31.224Z,42.50
2023-03-18T16:51:58.736Z,42.70
2023-03-18T16:54:32.814Z,41.80
2023-03-18T16:57:02.841Z,42.20
2023-03-18T16:59:34.339Z,42.60
2023-03-18T17:02:01.801Z,43.00
2023-03-18T17:04:32.433Z,43.10
2023-03-18T17:07:03.285Z,43.50
2023-03-18T17:09:31.990Z,43.60
2023-03-18T17:12:03.897Z,43.80
2023-03-18T17:14:39.746Z,44.00
2023-03-18T17:17:18.129Z,44.40
2023-03-18T17:19:45.202Z,44.40
2023-03-18T17:22:28.480Z,44.50
2023-03-18T17:24:55.549Z,45.10
2023-03-18T17:27:31.608Z,45.00
2023-03-18T17:29:58.550Z,45.50
2023-03-18T17:32:25.972Z,45.30
2023-03-18T17:34:54.423Z,45.70
2023-03-18T17:37:23.418Z,45.90
2023-03-18T17:39:50.568Z,46.10
2023-03-18T17:42:28.370Z,46.90
2023-03-18T17:44:57.493Z,46.90
2023-03-18T17:47:24.552Z,46.90
2023-03-18T17:49:51.574Z,47.10
2023-03-18T17:52:20.983Z,47.20
2023-03-18T17:54:48.476Z,47.60
2023-03-18T17:57:17.413Z,47.70
2023-03-18T17:59:45.216Z,47.90
2023-03-18T18:02:21.166Z,48.00
2023-03-18T18:04:48.232Z,48.30
2023-03-18T18:07:19.127Z,48.40
2023-03-18T18:09:46.881Z,48.70
2023-03-18T18:12:25.501Z,48.80
2023-03-18T18:14:52.736Z,49.30
2023-03-18T18:17:20.538Z,49.40
2023-03-18T18:19:47.564Z,49.50
2023-03-18T18:22:18.187Z,49.60
2023-03-18T18:24:47.042Z,49.90
2023-03-18T18:27:15.510Z,49.90
2023-03-18T18:29:51.700Z,50.10
2023-03-18T18:32:21.874Z,50.40
2023-03-18T18:34:49.173Z,50.50
2023-03-18T18:37:16.462Z,50.70
2023-03-18T18:39:43.567Z,50.90
2023-03-18T18:42:12.401Z,51.20
2023-03-18T18:44:40.113Z,51.20
2023-03-18T18:47:18.942Z,51.40
2023-03-18T18:49:47.072Z,52.00
2023-03-18T18:52:14.151Z,51.80
2023-03-18T18:54:41.796Z,52.00
2023-03-18T18:57:26.995Z,52.20
2023-03-18T18:59:54.084Z,52.80
2023-03-18T19:02:34.002Z,52.50
2023-03-18T19:05:04.571Z,53.10
2023-03-18T19:07:33.798Z,53.00
2023-03-18T19:10:00.944Z,53.20
2023-03-18T19:12:28.272Z,53.30
2023-03-18T19:14:55.878Z,53.50
2023-03-18T19:17:23.494Z,53.60
2023-03-18T19:19:52.936Z,53.70
2023-03-18T19:22:21.389Z,53.90
2023-03-18T19:24:50.084Z,54.10
2023-03-18T19:27:28.246Z,54.20
2023-03-18T19:29:59.115Z,54.60
2023-03-18T19:32:26.963Z,54.60
2023-03-18T19:34:55.196Z,54.60
2023-03-18T19:37:29.326Z,54.80
2023-03-18T19:39:57.433Z,55.00
2023-03-18T19:42:24.453Z,55.00
2023-03-18T19:44:51.613Z,55.10
2023-03-18T19:47:29.934Z,55.30
2023-03-18T19:49:57.124Z,55.50
2023-03-18T19:52:26.269Z,55.20
2023-03-18T19:54:55.245Z,55.30
2023-03-18T19:57:32.495Z,55.30
2023-03-18T20:00:04.389Z,55.70
2023-03-18T20:02:34.768Z,55.40
2023-03-18T20:05:07.560Z,55.60
2023-03-18T20:07:34.449Z,55.70
2023-03-18T20:10:01.540Z,55.80
2023-03-18T20:12:41.474Z,56.10
2023-03-18T20:15:26.569Z,56.30
2023-03-18T20:17:54.359Z,56.50
2023-03-18T20:20:25.027Z,56.20
2023-03-18T20:23:04.508Z,56.40
2023-03-18T20:25:38.717Z,56.60
2023-03-18T20:28:07.851Z,56.50
2023-03-18T20:30:38.884Z,56.60
2023-03-18T20:33:07.226Z,56.70
2023-03-18T20:35:41.039Z,56.70
2023-03-18T20:38:29.533Z,56.90
2023-03-18T20:40:57.243Z,56.90
2023-03-18T20:43:27.861Z,56.60
2023-03-18T20:45:58.165Z,56.70
2023-03-18T20:48:25.496Z,56.60
2023-03-18T20:50:52.961Z,56.40
2023-03-18T20:53:27.239Z,56.40
2023-03-18T20:55:54.781Z,56.50
2023-03-18T20:58:30.764Z,56.30
2023-03-18T21:00:57.832Z,56.60
2023-03-18T21:03:34.830Z,56.40
2023-03-18T21:06:06.835Z,56.60
2023-03-18T21:08:34.054Z,56.40
2023-03-18T21:11:02.266Z,56.30
2023-03-18T21:13:36.306Z,56.40
2023-03-18T21:16:06.227Z,56.50
2023-03-18T21:18:35.704Z,56.50
2023-03-18T21:21:02.645Z,56.40
2023-03-18T21:23:32.889Z,56.40
2023-03-18T21:26:01.058Z,56.30
2023-03-18T21:28:30.157Z,56.40
2023-03-18T21:30:58.594Z,56.30
2023-03-18T21:33:28.300Z,56.20
2023-03-18T21:35:58.897Z,56.20
2023-03-18T21:38:29.411Z,56.30
2023-03-18T21:41:00.506Z,56.40
2023-03-18T21:43:39.557Z,56.50
2023-03-18T21:46:12.939Z,56.70
2023-03-18T21:48:40.706Z,56.80
2023-03-18T21:51:38.115Z,56.90
2023-03-18T21:54:16.845Z,57.10
2023-03-18T21:56:43.961Z,57.70
2023-03-18T21:59:11.025Z,57.20
2023-03-18T22:01:38.102Z,57.20
2023-03-18T22:04:05.278Z,57.50
2023-03-18T22:06:32.247Z,57.70
2023-03-18T22:08:59.112Z,57.90
2023-03-18T22:11:26.116Z,58.10
2023-03-18T22:13:54.064Z,58.30
2023-03-18T22:16:21.650Z,58.50
2023-03-18T22:18:48.960Z,58.70
2023-03-18T22:21:28.426Z,58.90
2023-03-18T22:23:55.579Z,59.30
2023-03-18T22:26:22.676Z,59.30
2023-03-18T22:28:50.682Z,59.40
2023-03-18T22:31:26.583Z,59.60
2023-03-18T22:33:54.408Z,59.70
2023-03-18T22:36:22.145Z,59.90
2023-03-18T22:38:49.918Z,60.00
2023-03-18T22:41:25.310Z,60.30
2023-03-18T22:43:52.479Z,60.50
2023-03-18T22:46:19.385Z,60.90
2023-03-18T22:48:46.413Z,61.10
2023-03-18T22:51:25.944Z,61.40
2023-03-18T22:53:54.797Z,61.90
2023-03-18T22:56:23.177Z,62.00
2023-03-18T22:58:50.889Z,62.20
2023-03-18T23:01:21.371Z,62.30
2023-03-18T23:03:48.927Z,62.70
2023-03-18T23:06:19.976Z,62.70
2023-03-18T23:08:48.257Z,62.90
2023-03-18T23:11:17.546Z,63.10
2023-03-18T23:13:50.047Z,63.20
2023-03-18T23:16:21.204Z,63.30
2023-03-18T23:18:49.020Z,63.40
2023-03-18T23:21:23.458Z,63.60
2023-03-18T23:23:51.336Z,64.10
2023-03-18T23:26:19.401Z,64.10
2023-03-18T23:28:46.336Z,64.30
2023-03-18T23:31:15.432Z,64.50
2023-03-18T23:33:43.350Z,64.70
2023-03-18T23:36:11.749Z,64.80
2023-03-18T23:38:38.974Z,64.90
2023-03-18T23:41:07.190Z,65.10
2023-03-18T23:43:35.869Z,65.90
2023-03-18T23:46:03.672Z,65.10
2023-03-18T23:48:31.373Z,65.10
2023-03-18T23:50:58.277Z,65.20
2023-03-18T23:53:25.636Z,65.40
2023-03-18T23:55:52.569Z,65.50
2023-03-18T23:58:19.551Z,65.60
